createdAt,value
2018-01-17T00:00:18.105Z,0.00
2018-01-17T00:01:18.122Z,0.00
2018-01-17T00:02:18.134Z,0.00
2018-01-17T00:03:18.149Z,0.00
2018-01-17T00:04:18.173Z,0.00
2018-01-17T00:05:18.183Z,0.00
2018-01-17T00:06:18.205Z,0.00
2018-01-17T00:07:18.223Z,0.00
2018-01-17T00:08:18.235Z,0.00
2018-01-17T00:09:18.251Z,0.00
2018-01-17T00:10:18.274Z,0.00
2018-01-17T00:11:18.290Z,0.00
2018-01-17T00:12:18.303Z,0.00
2018-01-17T00:13:18.329Z,0.00
2018-01-17T00:14:18.340Z,0.00
2018-01-17T00:15:18.357Z,0.00
2018-01-17T00:16:18.370Z,0.00
2018-01-17T00:17:18.392Z,0.00
2018-01-17T00:18:18.402Z,0.00
2018-01-17T00:19:18.425Z,0.00
2018-01-17T00:20:18.442Z,0.00
2018-01-17T00:21:18.457Z,0.00
2018-01-17T00:22:18.469Z,0.00
2018-01-17T00:23:18.487Z,0.00
2018-01-17T00:24:18.509Z,0.00
2018-01-17T00:25:18.525Z,0.00
2018-01-17T00:26:18.542Z,0.00
2018-01-17T00:27:18.556Z,0.00
2018-01-17T00:28:18.575Z,0.00
2018-01-17T00:29:18.587Z,0.00
2018-01-17T00:30:18.604Z,0.00
2018-01-17T00:31:18.627Z,0.00
2018-01-17T00:32:18.638Z,0.00
2018-01-17T00:33:18.655Z,0.00
2018-01-17T00:34:18.679Z,0.00
2018-01-17T00:35:18.694Z,0.00
2018-01-17T00:36:18.710Z,0.00
2018-01-17T00:37:18.723Z,0.00
2018-01-17T00:38:18.751Z,0.00
2018-01-17T00:39:18.756Z,0.00
2018-01-17T00:40:18.779Z,0.00
2018-01-17T00:41:18.788Z,0.00
2018-01-17T00:42:18.812Z,0.00
2018-01-17T00:43:18.885Z,0.00
2018-01-17T00:44:18.846Z,0.00
2018-01-17T00:45:18.854Z,0.00
2018-01-17T00:46:18.877Z,0.00
2018-01-17T00:47:18.895Z,0.00
2018-01-17T00:48:18.915Z,0.00
2018-01-17T00:49:18.925Z,0.00
2018-01-17T00:50:18.945Z,0.00
2018-01-17T00:51:18.956Z,0.00
2018-01-17T00:52:18.980Z,0.00
2018-01-17T00:53:18.998Z,0.00
2018-01-17T00:54:19.007Z,0.00
2018-01-17T00:55:19.029Z,0.00
2018-01-17T00:56:19.040Z,0.00
2018-01-17T00:57:19.062Z,0.00
2018-01-17T00:58:19.074Z,0.00
2018-01-17T00:59:19.097Z,0.00
2018-01-17T01:00:19.109Z,0.00
2018-01-17T01:01:19.124Z,0.00
2018-01-17T01:02:19.141Z,0.00
2018-01-17T01:03:19.157Z,0.00
2018-01-17T01:04:19.179Z,0.00
2018-01-17T01:05:19.191Z,0.00
2018-01-17T01:06:19.215Z,0.00
2018-01-17T01:07:19.224Z,0.00
2018-01-17T01:08:19.243Z,0.00
2018-01-17T01:09:19.259Z,0.00
2018-01-17T01:10:19.281Z,0.00
2018-01-17T01:11:19.298Z,0.00
2018-01-17T01:12:19.310Z,0.00
2018-01-17T01:13:19.327Z,0.00
2018-01-17T01:14:19.349Z,0.00
2018-01-17T01:15:19.365Z,0.00
2018-01-17T01:16:19.378Z,0.00
2018-01-17T01:17:19.392Z,0.00
2018-01-17T01:18:19.416Z,0.00
2018-01-17T01:19:19.434Z,0.00
2018-01-17T01:20:19.444Z,0.00
2018-01-17T01:21:19.459Z,0.00
2018-01-17T01:22:19.484Z,0.00
2018-01-17T01:23:19.500Z,0.00
2018-01-17T01:24:19.512Z,0.00
2018-01-17T01:25:19.534Z,0.00
2018-01-17T01:26:19.548Z,0.00
2018-01-17T01:27:19.564Z,0.00
2018-01-17T01:28:19.585Z,0.00
2018-01-17T01:29:19.601Z,0.00
2018-01-17T01:30:19.612Z,0.00
2018-01-17T01:31:19.630Z,0.00
2018-01-17T01:32:19.652Z,0.00
2018-01-17T01:33:19.668Z,0.00
2018-01-17T01:34:19.681Z,0.00
2018-01-17T01:35:19.698Z,0.00
2018-01-17T01:36:19.719Z,0.00
2018-01-17T01:37:19.736Z,0.00
2018-01-17T01:38:19.748Z,0.00
2018-01-17T01:39:19.767Z,0.00
2018-01-17T01:40:19.787Z,0.00
2018-01-17T01:41:19.805Z,0.00
2018-01-17T01:42:19.820Z,0.00
2018-01-17T01:43:19.839Z,0.00
2018-01-17T01:44:19.851Z,0.00
2018-01-17T01:45:19.873Z,0.00
2018-01-17T01:46:19.886Z,0.00
2018-01-17T01:47:19.908Z,0.00
2018-01-17T01:48:19.920Z,0.00
2018-01-17T01:49:19.942Z,0.00
2018-01-17T01:50:19.953Z,0.00
2018-01-17T01:51:19.976Z,0.00
2018-01-17T01:52:19.988Z,0.00
2018-01-17T01:53:20.009Z,0.00
2018-01-17T01:54:20.022Z,0.00
2018-01-17T01:55:20.045Z,0.00
2018-01-17T01:56:20.057Z,0.00
2018-01-17T01:57:20.073Z,0.00
2018-01-17T01:58:20.098Z,0.00
2018-01-17T01:59:20.109Z,0.00
2018-01-17T02:00:20.132Z,0.00
2018-01-17T02:01:20.140Z,0.00
2018-01-17T02:02:20.165Z,0.00
2018-01-17T02:03:20.177Z,0.00
2018-01-17T02:04:20.200Z,0.00
2018-01-17T02:05:20.211Z,0.00
2018-01-17T02:06:20.234Z,0.00
2018-01-17T02:07:20.248Z,0.00
2018-01-17T02:08:20.269Z,0.00
2018-01-17T02:09:20.281Z,0.00
2018-01-17T02:10:20.305Z,0.00
2018-01-17T02:11:20.313Z,0.00
2018-01-17T02:12:20.338Z,0.00
2018-01-17T02:13:20.346Z,0.00
2018-01-17T02:14:20.370Z,0.00
2018-01-17T02:15:20.388Z,0.00
2018-01-17T02:16:20.399Z,0.00
2018-01-17T02:17:20.415Z,0.00
2018-01-17T02:18:20.439Z,0.00
2018-01-17T02:19:20.456Z,0.00
2018-01-17T02:20:20.468Z,0.00
2018-01-17T02:21:20.484Z,0.00
2018-01-17T02:22:20.506Z,0.00
2018-01-17T02:23:20.519Z,0.00
2018-01-17T02:24:20.541Z,0.00
2018-01-17T02:25:20.555Z,0.00
2018-01-17T02:26:20.575Z,0.00
2018-01-17T02:27:20.586Z,0.00
2018-01-17T02:28:20.608Z,0.00
2018-01-17T02:29:20.624Z,0.00
2018-01-17T02:30:20.642Z,0.00
2018-01-17T02:31:20.655Z,0.00
2018-01-17T02:32:20.677Z,0.00
2018-01-17T02:33:20.693Z,0.00
2018-01-17T02:34:20.703Z,0.00
2018-01-17T02:35:20.721Z,0.00
2018-01-17T02:36:20.746Z,0.00
2018-01-17T02:37:20.755Z,0.00
2018-01-17T02:38:20.777Z,0.00
2018-01-17T02:39:20.795Z,0.00
2018-01-17T02:40:20.806Z,0.00
2018-01-17T02:41:20.821Z,0.00
2018-01-17T02:42:20.844Z,0.00
2018-01-17T02:43:20.861Z,0.00
2018-01-17T02:44:20.875Z,0.00
2018-01-17T02:45:20.894Z,0.00
2018-01-17T02:46:20.906Z,0.00
2018-01-17T02:47:20.928Z,0.00
2018-01-17T02:48:20.938Z,0.00
2018-01-17T02:49:20.959Z,0.00
2018-01-17T02:50:20.974Z,0.00
2018-01-17T02:51:20.995Z,0.00
2018-01-17T02:52:21.008Z,0.00
2018-01-17T02:53:21.021Z,0.00
2018-01-17T02:54:21.044Z,0.00
2018-01-17T02:55:21.060Z,0.00
2018-01-17T02:56:21.071Z,0.00
2018-01-17T02:57:21.087Z,0.00
2018-01-17T02:58:21.110Z,0.00
2018-01-17T02:59:21.127Z,0.00
2018-01-17T03:00:21.137Z,0.00
2018-01-17T03:01:21.153Z,0.00
2018-01-17T03:02:21.176Z,0.00
2018-01-17T03:03:21.186Z,0.00
2018-01-17T03:04:21.210Z,0.00
2018-01-17T03:05:21.219Z,0.00
2018-01-17T03:06:21.242Z,0.00
2018-01-17T03:07:21.253Z,0.00
2018-01-17T03:08:21.275Z,0.00
2018-01-17T03:09:21.291Z,0.00
2018-01-17T03:10:21.302Z,0.00
2018-01-17T03:11:21.324Z,0.00
2018-01-17T03:12:21.334Z,0.00
2018-01-17T03:13:21.355Z,0.00
2018-01-17T03:14:21.368Z,0.00
2018-01-17T03:15:21.391Z,0.00
2018-01-17T03:16:21.400Z,0.00
2018-01-17T03:17:21.419Z,0.00
2018-01-17T03:18:21.439Z,0.00
2018-01-17T03:19:21.450Z,0.00
2018-01-17T03:20:21.476Z,0.00
2018-01-17T03:21:21.482Z,0.00
2018-01-17T03:22:21.504Z,0.00
2018-01-17T03:23:21.515Z,0.00
2018-01-17T03:24:21.538Z,0.00
2018-01-17T03:25:21.547Z,0.00
2018-01-17T03:26:21.563Z,0.00
2018-01-17T03:27:21.587Z,0.00
2018-01-17T03:28:21.597Z,0.00
2018-01-17T03:29:21.612Z,0.00
2018-01-17T03:30:21.636Z,0.00
2018-01-17T03:31:21.652Z,0.00
2018-01-17T03:32:21.669Z,0.00
2018-01-17T03:33:21.683Z,0.00
2018-01-17T03:34:21.693Z,0.00
2018-01-17T03:35:21.717Z,0.00
2018-01-17T03:36:21.727Z,0.00
2018-01-17T03:37:21.748Z,0.00
2018-01-17T03:38:21.759Z,0.00
2018-01-17T03:39:21.782Z,0.00
2018-01-17T03:40:21.791Z,0.00
2018-01-17T03:41:21.807Z,0.00
2018-01-17T03:42:21.824Z,0.00
2018-01-17T03:43:21.840Z,0.00
2018-01-17T03:44:21.861Z,0.00
2018-01-17T03:45:21.875Z,0.00
2018-01-17T03:46:21.895Z,0.00
2018-01-17T03:47:21.907Z,0.00
2018-01-17T03:48:21.922Z,0.00
2018-01-17T03:49:21.939Z,0.00
2018-01-17T03:50:21.960Z,0.00
2018-01-17T03:51:21.976Z,0.00
2018-01-17T03:52:21.987Z,0.00
2018-01-17T03:53:22.002Z,0.00
2018-01-17T03:54:22.025Z,0.00
2018-01-17T03:55:22.042Z,0.00
2018-01-17T03:56:22.052Z,0.00
2018-01-17T03:57:22.074Z,0.00
2018-01-17T03:58:22.091Z,0.00
2018-01-17T03:59:22.106Z,0.00
2018-01-17T04:00:22.125Z,0.00
2018-01-17T04:01:22.138Z,0.00
2018-01-17T04:02:22.149Z,0.00
2018-01-17T04:03:22.165Z,0.00
2018-01-17T04:04:22.188Z,0.00
2018-01-17T04:05:22.205Z,0.00
2018-01-17T04:06:22.214Z,0.00
2018-01-17T04:07:22.230Z,0.00
2018-01-17T04:08:22.252Z,0.00
2018-01-17T04:09:22.268Z,0.00
2018-01-17T04:10:22.279Z,0.00
2018-01-17T04:11:22.295Z,0.00
2018-01-17T04:12:22.317Z,0.00
2018-01-17T04:13:22.329Z,0.00
2018-01-17T04:14:22.345Z,0.00
2018-01-17T04:15:22.366Z,0.00
2018-01-17T04:16:22.377Z,0.00
2018-01-17T04:17:22.392Z,0.00
2018-01-17T04:18:22.413Z,0.00
2018-01-17T04:19:22.431Z,0.00
2018-01-17T04:20:22.448Z,0.00
2018-01-17T04:21:22.458Z,0.00
2018-01-17T04:22:22.479Z,0.00
2018-01-17T04:23:22.490Z,0.00
2018-01-17T04:24:22.513Z,0.00
2018-01-17T04:25:22.523Z,0.00
2018-01-17T04:26:22.544Z,0.00
2018-01-17T04:27:22.556Z,0.00
2018-01-17T04:28:22.578Z,0.00
2018-01-17T04:29:22.589Z,0.00
2018-01-17T04:30:22.604Z,0.00
2018-01-17T04:31:22.621Z,0.00
2018-01-17T04:32:22.642Z,0.00
2018-01-17T04:33:22.652Z,0.00
2018-01-17T04:34:22.676Z,0.00
2018-01-17T04:35:22.686Z,0.00
2018-01-17T04:36:22.702Z,0.00
2018-01-17T04:37:22.724Z,0.00
2018-01-17T04:38:22.734Z,0.00
2018-01-17T04:39:22.756Z,0.00
2018-01-17T04:40:22.769Z,0.00
2018-01-17T04:41:22.787Z,0.00
2018-01-17T04:42:22.800Z,0.00
2018-01-17T04:43:22.822Z,0.00
2018-01-17T04:44:22.832Z,0.00
2018-01-17T04:45:22.853Z,0.00
2018-01-17T04:46:22.869Z,0.00
2018-01-17T04:47:22.887Z,0.00
2018-01-17T04:48:22.900Z,0.00
2018-01-17T04:49:22.926Z,0.00
2018-01-17T04:50:22.928Z,0.00
2018-01-17T04:51:22.951Z,0.00
2018-01-17T04:52:22.968Z,0.00
2018-01-17T04:53:22.977Z,0.00
2018-01-17T04:54:23.000Z,0.00
2018-01-17T04:55:23.016Z,0.00
2018-01-17T04:56:23.027Z,0.00
2018-01-17T04:57:23.043Z,0.00
2018-01-17T04:58:23.065Z,0.00
2018-01-17T04:59:23.081Z,0.00
2018-01-17T05:00:23.093Z,0.00
2018-01-17T05:01:23.113Z,0.00
2018-01-17T05:02:23.123Z,0.00
2018-01-17T05:03:23.175Z,0.00
2018-01-17T05:04:23.163Z,0.00
2018-01-17T05:05:23.172Z,0.00
2018-01-17T05:06:23.189Z,0.00
2018-01-17T05:07:23.205Z,0.00
2018-01-17T05:08:23.228Z,0.00
2018-01-17T05:09:23.243Z,0.00
2018-01-17T05:10:23.253Z,0.00
2018-01-17T05:11:23.272Z,0.00
2018-01-17T05:12:23.292Z,0.00
2018-01-17T05:13:23.307Z,0.00
2018-01-17T05:14:23.319Z,0.00
2018-01-17T05:15:23.334Z,0.00
2018-01-17T05:16:23.357Z,0.00
2018-01-17T05:17:23.372Z,0.00
2018-01-17T05:18:23.388Z,0.00
2018-01-17T05:19:23.399Z,0.00
2018-01-17T05:20:23.417Z,0.00
2018-01-17T05:21:23.487Z,0.00
2018-01-17T05:22:23.447Z,0.00
2018-01-17T05:23:23.469Z,0.00
2018-01-17T05:24:23.481Z,0.00
2018-01-17T05:25:23.501Z,0.00
2018-01-17T05:26:23.514Z,0.00
2018-01-17T05:27:23.534Z,0.00
2018-01-17T05:28:23.545Z,0.00
2018-01-17T05:29:23.566Z,0.00
2018-01-17T05:30:23.576Z,0.00
2018-01-17T05:31:23.598Z,0.00
2018-01-17T05:32:23.609Z,0.00
2018-01-17T05:33:23.625Z,0.00
2018-01-17T05:34:23.647Z,0.00
2018-01-17T05:35:23.664Z,0.00
2018-01-17T05:36:23.679Z,0.00
2018-01-17T05:37:23.689Z,0.00
2018-01-17T05:38:23.711Z,0.00
2018-01-17T05:39:23.727Z,0.00
2018-01-17T05:40:23.739Z,0.00
2018-01-17T05:41:23.754Z,0.00
2018-01-17T05:42:23.775Z,0.00
2018-01-17T05:43:23.789Z,0.00
2018-01-17T05:44:23.808Z,0.00
2018-01-17T05:45:23.820Z,0.00
2018-01-17T05:46:23.840Z,0.00
2018-01-17T05:47:23.850Z,0.00
2018-01-17T05:48:23.873Z,0.00
2018-01-17T05:49:23.888Z,0.00
2018-01-17T05:50:23.899Z,0.00
2018-01-17T05:51:23.924Z,0.00
2018-01-17T05:52:23.932Z,0.00
2018-01-17T05:53:23.952Z,0.00
2018-01-17T05:54:23.964Z,0.00
2018-01-17T05:55:23.986Z,0.00
2018-01-17T05:56:23.996Z,0.00
2018-01-17T05:57:24.013Z,0.00
2018-01-17T05:58:24.034Z,0.00
2018-01-17T05:59:24.050Z,0.00
2018-01-17T06:00:24.062Z,0.00
2018-01-17T06:01:24.077Z,0.00
2018-01-17T06:02:24.099Z,0.00
2018-01-17T06:03:24.116Z,0.00
2018-01-17T06:04:24.126Z,0.00
2018-01-17T06:05:24.141Z,0.00
2018-01-17T06:06:24.163Z,0.00
2018-01-17T06:07:24.176Z,0.00
2018-01-17T06:08:24.195Z,0.00
2018-01-17T06:09:24.206Z,0.00
2018-01-17T06:10:24.230Z,0.00
2018-01-17T06:11:24.239Z,0.00
2018-01-17T06:12:24.260Z,0.00
2018-01-17T06:13:24.277Z,0.00
2018-01-17T06:14:24.286Z,0.00
2018-01-17T06:15:24.303Z,0.00
2018-01-17T06:16:24.325Z,0.00
2018-01-17T06:17:24.340Z,0.00
2018-01-17T06:18:24.353Z,0.00
2018-01-17T06:19:24.367Z,0.00
2018-01-17T06:20:24.390Z,0.00
2018-01-17T06:21:24.400Z,0.00
2018-01-17T06:22:24.422Z,0.00
2018-01-17T06:23:24.437Z,0.00
2018-01-17T06:24:24.448Z,0.00
2018-01-17T06:25:24.463Z,0.00
2018-01-17T06:26:24.486Z,0.00
2018-01-17T06:27:24.503Z,0.00
2018-01-17T06:28:24.514Z,0.00
2018-01-17T06:29:24.534Z,0.00
2018-01-17T06:30:24.545Z,0.00
2018-01-17T06:31:24.568Z,0.00
2018-01-17T06:32:24.578Z,0.00
2018-01-17T06:33:24.600Z,0.00
2018-01-17T06:34:24.611Z,0.00
2018-01-17T06:35:24.633Z,0.00
2018-01-17T06:36:24.643Z,0.00
2018-01-17T06:37:24.664Z,0.00
2018-01-17T06:38:24.676Z,0.00
2018-01-17T06:39:24.697Z,0.00
2018-01-17T06:40:24.708Z,0.00
2018-01-17T06:41:24.730Z,0.00
2018-01-17T06:42:24.741Z,0.00
2018-01-17T06:43:24.762Z,0.00
2018-01-17T06:44:24.773Z,0.00
2018-01-17T06:45:24.788Z,0.00
2018-01-17T06:46:24.813Z,0.00
2018-01-17T06:47:24.821Z,0.00
2018-01-17T06:48:24.844Z,0.00
2018-01-17T06:49:24.855Z,0.00
2018-01-17T06:50:24.876Z,0.00
2018-01-17T06:51:24.887Z,0.00
2018-01-17T06:52:24.910Z,0.00
2018-01-17T06:53:24.919Z,0.00
2018-01-17T06:54:24.943Z,0.00
2018-01-17T06:55:24.951Z,0.00
2018-01-17T06:56:24.974Z,0.00
2018-01-17T06:57:24.983Z,0.00
2018-01-17T06:58:25.006Z,0.00
2018-01-17T06:59:25.018Z,0.00
2018-01-17T07:00:25.044Z,0.00
2018-01-17T07:01:25.048Z,0.00
2018-01-17T07:02:25.071Z,0.00
2018-01-17T07:03:25.087Z,0.00
2018-01-17T07:04:25.099Z,0.00
2018-01-17T07:05:25.115Z,0.00
2018-01-17T07:06:25.137Z,0.00
2018-01-17T07:07:25.153Z,0.00
2018-01-17T07:08:25.163Z,0.00
2018-01-17T07:09:25.180Z,0.00
2018-01-17T07:10:25.200Z,0.00
2018-01-17T07:11:25.217Z,0.00
2018-01-17T07:12:25.229Z,0.00
2018-01-17T07:13:25.243Z,0.00
2018-01-17T07:14:25.264Z,0.00
2018-01-17T07:15:25.282Z,0.00
2018-01-17T07:16:25.293Z,0.00
2018-01-17T07:17:25.315Z,0.00
2018-01-17T07:18:25.325Z,0.00
2018-01-17T07:19:25.341Z,0.00
2018-01-17T07:20:25.364Z,0.00
2018-01-17T07:21:25.378Z,0.00
2018-01-17T07:22:25.390Z,0.00
2018-01-17T07:23:25.412Z,0.00
2018-01-17T07:24:25.429Z,0.00
2018-01-17T07:25:25.444Z,0.00
2018-01-17T07:26:25.454Z,0.00
2018-01-17T07:27:25.470Z,0.00
2018-01-17T07:28:25.493Z,5.63
2018-01-17T07:29:25.509Z,5.63
2018-01-17T07:30:25.519Z,0.00
2018-01-17T07:31:25.537Z,0.00
2018-01-17T07:32:25.558Z,0.00
2018-01-17T07:33:25.574Z,0.00
2018-01-17T07:34:25.586Z,0.00
2018-01-17T07:35:25.605Z,0.00
2018-01-17T07:36:25.622Z,5.63
2018-01-17T07:37:25.632Z,5.63
2018-01-17T07:38:25.649Z,5.63
2018-01-17T07:39:25.667Z,5.63
2018-01-17T07:40:25.688Z,11.25
2018-01-17T07:41:25.697Z,11.25
2018-01-17T07:42:25.720Z,11.25
2018-01-17T07:43:25.783Z,11.25
2018-01-17T07:44:25.747Z,11.25
2018-01-17T07:45:25.762Z,11.25
2018-01-17T07:46:25.784Z,11.25
2018-01-17T07:47:25.800Z,11.25
2018-01-17T07:48:25.812Z,5.63
2018-01-17T07:49:25.834Z,5.63
2018-01-17T07:50:25.849Z,11.25
2018-01-17T07:51:25.862Z,5.63
2018-01-17T07:52:25.883Z,5.63
2018-01-17T07:53:25.897Z,5.63
2018-01-17T07:54:25.926Z,5.63
2018-01-17T07:55:25.926Z,5.63
2018-01-17T07:56:25.942Z,5.63
2018-01-17T07:57:25.965Z,5.63
2018-01-17T07:58:25.975Z,5.63
2018-01-17T07:59:25.991Z,5.63
2018-01-17T08:00:26.015Z,5.63
2018-01-17T08:01:26.031Z,0.00
2018-01-17T08:02:26.042Z,5.63
2018-01-17T08:03:26.057Z,5.63
2018-01-17T08:04:26.084Z,5.63
2018-01-17T08:05:26.096Z,5.63
2018-01-17T08:06:26.106Z,5.63
2018-01-17T08:07:26.123Z,0.00
2018-01-17T08:08:26.140Z,0.00
2018-01-17T08:09:26.159Z,0.00
2018-01-17T08:10:26.173Z,0.00
2018-01-17T08:11:26.196Z,0.00
2018-01-17T08:12:26.206Z,0.00
2018-01-17T08:13:26.223Z,0.00
2018-01-17T08:14:26.246Z,0.00
2018-01-17T08:15:26.256Z,0.00
2018-01-17T08:16:26.276Z,0.00
2018-01-17T08:17:26.287Z,0.00
2018-01-17T08:18:26.310Z,0.00
2018-01-17T08:19:26.321Z,0.00
2018-01-17T08:20:26.343Z,0.00
2018-01-17T08:21:26.352Z,0.00
2018-01-17T08:22:26.375Z,0.00
2018-01-17T08:23:26.391Z,0.00
2018-01-17T08:24:26.407Z,0.00
2018-01-17T08:25:26.424Z,0.00
2018-01-17T08:26:26.439Z,5.63
2018-01-17T08:27:26.451Z,5.63
2018-01-17T08:28:26.472Z,5.63
2018-01-17T08:29:26.487Z,5.63
2018-01-17T08:30:26.499Z,0.00
2018-01-17T08:31:26.521Z,0.00
2018-01-17T08:32:26.532Z,0.00
2018-01-17T08:33:26.553Z,0.00
2018-01-17T08:34:26.565Z,0.00
2018-01-17T08:35:26.586Z,0.00
2018-01-17T08:36:26.596Z,0.00
2018-01-17T08:37:26.613Z,0.00
2018-01-17T08:38:26.634Z,5.63
2018-01-17T08:39:26.651Z,5.63
2018-01-17T08:40:26.661Z,5.63
2018-01-17T08:41:26.682Z,11.25
2018-01-17T08:42:26.700Z,11.25
2018-01-17T08:43:26.716Z,11.25
2018-01-17T08:44:26.732Z,11.25
2018-01-17T08:45:26.741Z,11.25
2018-01-17T08:46:26.762Z,16.88
2018-01-17T08:47:26.780Z,16.88
2018-01-17T08:48:26.791Z,16.88
2018-01-17T08:49:26.806Z,11.25
2018-01-17T08:50:26.828Z,16.88
2018-01-17T08:51:26.897Z,28.13
2018-01-17T08:52:26.863Z,33.75
2018-01-17T08:53:26.871Z,39.38
2018-01-17T08:54:26.893Z,45.00
2018-01-17T08:55:26.957Z,45.00
2018-01-17T08:56:26.920Z,50.63
2018-01-17T08:57:26.935Z,56.25
2018-01-17T08:58:26.958Z,56.25
2018-01-17T08:59:26.977Z,61.88
2018-01-17T09:00:26.991Z,67.50
2018-01-17T09:01:27.022Z,73.13
2018-01-17T09:02:27.017Z,78.75
2018-01-17T09:03:27.034Z,78.75
2018-01-17T09:04:27.056Z,78.75
2018-01-17T09:05:27.071Z,84.38
2018-01-17T09:06:27.146Z,78.75
2018-01-17T09:07:27.099Z,90.00
2018-01-17T09:08:27.121Z,101.25
2018-01-17T09:09:27.138Z,106.88
2018-01-17T09:10:27.147Z,106.88
2018-01-17T09:11:27.168Z,106.88
2018-01-17T09:12:27.207Z,118.13
2018-01-17T09:13:27.195Z,118.13
2018-01-17T09:14:27.212Z,118.13
2018-01-17T09:15:27.230Z,123.75
2018-01-17T09:16:27.248Z,129.38
2018-01-17T09:17:27.260Z,123.75
2018-01-17T09:18:27.282Z,112.50
2018-01-17T09:19:27.294Z,123.75
2018-01-17T09:20:27.314Z,140.63
2018-01-17T09:21:27.325Z,140.63
2018-01-17T09:22:27.347Z,140.63
2018-01-17T09:23:27.358Z,140.63
2018-01-17T09:24:27.382Z,140.63
2018-01-17T09:25:27.396Z,146.25
2018-01-17T09:26:27.407Z,151.88
2018-01-17T09:27:27.423Z,163.13
2018-01-17T09:28:27.440Z,168.75
2018-01-17T09:29:27.458Z,174.38
2018-01-17T09:30:27.472Z,174.38
2018-01-17T09:31:27.496Z,191.25
2018-01-17T09:32:27.507Z,208.13
2018-01-17T09:33:27.526Z,247.50
2018-01-17T09:34:27.537Z,270.00
2018-01-17T09:35:27.559Z,309.38
2018-01-17T09:36:27.571Z,270.00
2018-01-17T09:37:27.592Z,230.63
2018-01-17T09:38:27.603Z,253.13
2018-01-17T09:39:27.626Z,258.75
2018-01-17T09:40:27.636Z,236.25
2018-01-17T09:41:27.653Z,601.88
2018-01-17T09:42:27.676Z,450.00
2018-01-17T09:43:27.692Z,967.50
2018-01-17T09:44:27.705Z,1080.00
2018-01-17T09:45:27.722Z,371.25
2018-01-17T09:46:27.749Z,1023.75
2018-01-17T09:47:27.759Z,894.38
2018-01-17T09:48:27.775Z,326.25
2018-01-17T09:49:27.795Z,315.00
2018-01-17T09:50:27.812Z,663.75
2018-01-17T09:51:27.830Z,1631.25
2018-01-17T09:52:27.843Z,433.13
2018-01-17T09:53:27.859Z,1800.00
2018-01-17T09:54:27.883Z,298.13
2018-01-17T09:55:27.902Z,151.88
2018-01-17T09:56:27.917Z,956.25
2018-01-17T09:57:27.937Z,185.63
2018-01-17T09:58:27.951Z,157.50
2018-01-17T09:59:27.971Z,219.38
2018-01-17T10:00:27.994Z,337.50
2018-01-17T10:01:28.011Z,343.13
2018-01-17T10:02:28.025Z,573.75
2018-01-17T10:03:28.044Z,376.88
2018-01-17T10:04:28.081Z,461.25
2018-01-17T10:05:28.086Z,455.63
2018-01-17T10:06:28.100Z,343.13
2018-01-17T10:07:28.119Z,1417.50
2018-01-17T10:08:28.144Z,1760.63
2018-01-17T10:09:28.164Z,331.88
2018-01-17T10:10:28.176Z,354.38
2018-01-17T10:11:28.196Z,208.13
2018-01-17T10:12:28.221Z,168.75
2018-01-17T10:13:28.239Z,253.13
2018-01-17T10:14:28.254Z,247.50
2018-01-17T10:15:28.279Z,163.13
2018-01-17T10:16:28.294Z,95.63
2018-01-17T10:17:28.317Z,90.00
2018-01-17T10:18:28.353Z,123.75
2018-01-17T10:19:28.357Z,106.88
2018-01-17T10:20:28.373Z,135.00
2018-01-17T10:21:28.394Z,191.25
2018-01-17T10:22:28.407Z,270.00
2018-01-17T10:23:28.432Z,315.00
2018-01-17T10:24:28.446Z,348.75
2018-01-17T10:25:28.470Z,292.50
2018-01-17T10:26:28.482Z,275.63
2018-01-17T10:27:28.506Z,315.00
2018-01-17T10:28:28.519Z,281.25
2018-01-17T10:29:28.537Z,281.25
2018-01-17T10:30:28.563Z,270.00
2018-01-17T10:31:28.575Z,225.00
2018-01-17T10:32:28.600Z,303.75
2018-01-17T10:33:28.611Z,348.75
2018-01-17T10:34:28.635Z,371.25
2018-01-17T10:35:28.648Z,331.88
2018-01-17T10:36:28.673Z,376.88
2018-01-17T10:37:28.685Z,421.88
2018-01-17T10:38:28.709Z,433.13
2018-01-17T10:39:28.722Z,433.13
2018-01-17T10:40:28.746Z,354.38
2018-01-17T10:41:28.756Z,376.88
2018-01-17T10:42:28.781Z,354.38
2018-01-17T10:43:28.794Z,354.38
2018-01-17T10:44:28.843Z,438.75
2018-01-17T10:45:28.830Z,286.88
2018-01-17T10:46:28.857Z,264.38
2018-01-17T10:47:28.906Z,270.00
2018-01-17T10:48:28.889Z,309.38
2018-01-17T10:49:28.905Z,343.13
2018-01-17T10:50:28.926Z,365.63
2018-01-17T10:51:28.939Z,472.50
2018-01-17T10:52:28.963Z,489.38
2018-01-17T10:53:28.977Z,450.00
2018-01-17T10:54:28.999Z,399.38
2018-01-17T10:55:29.026Z,405.00
2018-01-17T10:56:29.030Z,410.63
2018-01-17T10:57:29.048Z,382.50
2018-01-17T10:58:29.073Z,433.13
2018-01-17T10:59:29.092Z,365.63
2018-01-17T11:00:29.111Z,213.75
2018-01-17T11:01:29.127Z,315.00
2018-01-17T11:02:29.169Z,202.50
2018-01-17T11:03:29.163Z,213.75
2018-01-17T11:04:29.177Z,247.50
2018-01-17T11:05:29.194Z,241.88
2018-01-17T11:06:29.218Z,320.63
2018-01-17T11:07:29.237Z,281.25
2018-01-17T11:08:29.250Z,151.88
2018-01-17T11:09:29.274Z,118.13
2018-01-17T11:10:29.286Z,95.63
2018-01-17T11:11:29.306Z,78.75
2018-01-17T11:12:29.329Z,78.75
2018-01-17T11:13:29.345Z,101.25
2018-01-17T11:14:29.361Z,106.88
2018-01-17T11:15:29.378Z,95.63
2018-01-17T11:16:29.401Z,90.00
2018-01-17T11:17:29.414Z,84.38
2018-01-17T11:18:29.437Z,78.75
2018-01-17T11:19:29.456Z,73.13
2018-01-17T11:20:29.467Z,73.13
2018-01-17T11:21:29.485Z,73.13
2018-01-17T11:22:29.509Z,61.88
2018-01-17T11:23:29.526Z,56.25
2018-01-17T11:24:29.540Z,39.38
2018-01-17T11:25:29.562Z,33.75
2018-01-17T11:26:29.575Z,39.38
2018-01-17T11:27:29.598Z,45.00
2018-01-17T11:28:29.610Z,61.88
2018-01-17T11:29:29.633Z,78.75
2018-01-17T11:30:29.644Z,101.25
2018-01-17T11:31:29.668Z,118.13
2018-01-17T11:32:29.679Z,163.13
2018-01-17T11:33:29.702Z,129.38
2018-01-17T11:34:29.716Z,112.50
2018-01-17T11:35:29.744Z,84.38
2018-01-17T11:36:29.749Z,73.13
2018-01-17T11:37:29.770Z,56.25
2018-01-17T11:38:29.784Z,67.50
2018-01-17T11:39:29.806Z,90.00
2018-01-17T11:40:29.818Z,90.00
2018-01-17T11:41:29.835Z,84.38
2018-01-17T11:42:29.858Z,101.25
2018-01-17T11:43:29.871Z,95.63
2018-01-17T11:44:29.896Z,84.38
2018-01-17T11:45:29.904Z,140.63
2018-01-17T11:46:29.927Z,146.25
2018-01-17T11:47:29.945Z,146.25
2018-01-17T11:48:29.963Z,151.88
2018-01-17T11:49:29.979Z,163.13
2018-01-17T11:50:29.992Z,135.00
2018-01-17T11:51:30.014Z,129.38
2018-01-17T11:52:30.026Z,112.50
2018-01-17T11:53:30.043Z,84.38
2018-01-17T11:54:30.060Z,73.13
2018-01-17T11:55:30.083Z,73.13
2018-01-17T11:56:30.100Z,90.00
2018-01-17T11:57:30.112Z,95.63
2018-01-17T11:58:30.134Z,78.75
2018-01-17T11:59:30.146Z,73.13
2018-01-17T12:00:30.169Z,78.75
2018-01-17T12:01:30.180Z,67.50
2018-01-17T12:02:30.204Z,56.25
2018-01-17T12:03:30.216Z,61.88
2018-01-17T12:04:30.239Z,78.75
2018-01-17T12:05:30.249Z,73.13
2018-01-17T12:06:30.267Z,67.50
2018-01-17T12:07:30.284Z,50.63
2018-01-17T12:08:30.307Z,50.63
2018-01-17T12:09:30.318Z,50.63
2018-01-17T12:10:30.342Z,50.63
2018-01-17T12:11:30.356Z,39.38
2018-01-17T12:12:30.371Z,39.38
2018-01-17T12:13:30.393Z,33.75
2018-01-17T12:14:30.405Z,33.75
2018-01-17T12:15:30.429Z,28.13
2018-01-17T12:16:30.440Z,22.50
2018-01-17T12:17:30.463Z,22.50
2018-01-17T12:18:30.473Z,22.50
2018-01-17T12:19:30.497Z,16.88
2018-01-17T12:20:30.509Z,16.88
2018-01-17T12:21:30.527Z,16.88
2018-01-17T12:22:30.550Z,11.25
2018-01-17T12:23:30.565Z,5.63
2018-01-17T12:24:30.582Z,5.63
2018-01-17T12:25:30.600Z,11.25
2018-01-17T12:26:30.617Z,5.63
2018-01-17T12:27:30.628Z,11.25
2018-01-17T12:28:30.652Z,11.25
2018-01-17T12:29:30.663Z,11.25
2018-01-17T12:30:30.686Z,11.25
2018-01-17T12:31:30.702Z,11.25
2018-01-17T12:32:30.714Z,11.25
2018-01-17T12:33:30.730Z,11.25
2018-01-17T12:34:30.755Z,11.25
2018-01-17T12:35:30.771Z,11.25
2018-01-17T12:36:30.782Z,11.25
2018-01-17T12:37:30.805Z,11.25
2018-01-17T12:38:30.818Z,16.88
2018-01-17T12:39:30.840Z,16.88
2018-01-17T12:40:30.858Z,16.88
2018-01-17T12:41:30.867Z,22.50
2018-01-17T12:42:30.885Z,22.50
2018-01-17T12:43:30.948Z,33.75
2018-01-17T12:44:30.925Z,39.38
2018-01-17T12:45:30.941Z,22.50
2018-01-17T12:46:30.954Z,28.13
2018-01-17T12:47:30.971Z,28.13
2018-01-17T12:48:30.994Z,28.13
2018-01-17T12:49:31.009Z,33.75
2018-01-17T12:50:31.021Z,39.38
2018-01-17T12:51:31.039Z,45.00
2018-01-17T12:52:31.060Z,56.25
2018-01-17T12:53:31.076Z,56.25
2018-01-17T12:54:31.091Z,61.88
2018-01-17T12:55:31.105Z,61.88
2018-01-17T12:56:31.124Z,45.00
2018-01-17T12:57:31.139Z,33.75
2018-01-17T12:58:31.194Z,28.13
2018-01-17T12:59:31.179Z,16.88
2018-01-17T13:00:31.191Z,16.88
2018-01-17T13:01:31.207Z,16.88
2018-01-17T13:02:31.229Z,16.88
2018-01-17T13:03:31.241Z,16.88
2018-01-17T13:04:31.262Z,22.50